Hier das METAR für die 16 wichtigsten Deutschen Flughäfen.
(dauert ein wenig.... ich muss laden.....)

ODER
METAR nach ICAO Code suchen

Berlin - Schönefeld

EDDB

METAR
EDDB 212050Z 03005KT 9999 FEW041 BKN089 M00/M04 Q1026 NOSIG
EDDBMETAR lang
Berlin-Schoenefeld, Germany (EDDB) 52-23N 013-31E 50M
Feb 21, 2018 - 03:50 PM EST / 2018.02.21 2050 UTC
Wind: from the NNE (030 degrees) at 6 MPH (5 KT):0
Visibility: greater than 7 mile(s):0
Sky conditions: mostly cloudy
Temperature: 32 F (0 C)
Windchill: 26 F (-3 C):1
Dew Point: 24 F (-4 C)
Relative Humidity: 74%
Pressure (altimeter): 30.30 in. Hg (1026 hPa)
ob: EDDB 212050Z 03005KT 9999 FEW041 BKN089 M00/M04 Q1026 NOSIG
cycle: 21

Dresden

EDDC

METAR
EDDC 212050Z 06004KT CAVOK M02/M06 Q1023 NOSIG
EDDCMETAR lang
Dresden-Klotzsche, Germany (EDDC) 51-08N 013-45E 232M
Feb 21, 2018 - 03:50 PM EST / 2018.02.21 2050 UTC
Wind: from the ENE (060 degrees) at 5 MPH (4 KT):0
Visibility: greater than 7 mile(s):0
Temperature: 28 F (-2 C)
Windchill: 23 F (-5 C):1
Dew Point: 21 F (-6 C)
Relative Humidity: 74%
Pressure (altimeter): 30.21 in. Hg (1023 hPa)
ob: EDDC 212050Z 06004KT CAVOK M02/M06 Q1023 NOSIG
cycle: 21

Erfurt

EDDE

METAR
EDDE 212050Z 05004KT CAVOK M03/M05 Q1023 NOSIG
EDDEMETAR lang
Erfurt-Bindersleben, Germany (EDDE) 50-59N 010-58E 322M
Feb 21, 2018 - 03:50 PM EST / 2018.02.21 2050 UTC
Wind: from the NE (050 degrees) at 5 MPH (4 KT):0
Visibility: greater than 7 mile(s):0
Temperature: 26 F (-3 C)
Windchill: 19 F (-7 C):1
Dew Point: 23 F (-5 C)
Relative Humidity: 86%
Pressure (altimeter): 30.21 in. Hg (1023 hPa)
ob: EDDE 212050Z 05004KT CAVOK M03/M05 Q1023 NOSIG
cycle: 21

Frankfurt a. Main

EDDF

METAR
EDDF 212050Z 04014KT CAVOK 01/M06 Q1022 NOSIG
EDDFMETAR lang
Frankfurt / M-Flughafen, Germany (EDDF) 50-03N 008-36E 113M
Feb 21, 2018 - 03:50 PM EST / 2018.02.21 2050 UTC
Wind: from the NE (040 degrees) at 16 MPH (14 KT):0
Visibility: greater than 7 mile(s):0
Temperature: 33 F (1 C)
Windchill: 23 F (-5 C):1
Dew Point: 21 F (-6 C)
Relative Humidity: 59%
Pressure (altimeter): 30.18 in. Hg (1022 hPa)
ob: EDDF 212050Z 04014KT CAVOK 01/M06 Q1022 NOSIG
cycle: 21

Münster Osnabrück

EDDG

METAR
EDDG 212050Z 04004KT 350V090 CAVOK M02/M05 Q1026 NOSIG
EDDGMETAR lang
Muenster / Osnabrueck, Germany (EDDG) 52-08N 007-42E 53M
Feb 21, 2018 - 03:50 PM EST / 2018.02.21 2050 UTC
Wind: from the NE (040 degrees) at 5 MPH (4 KT) (direction variable):0
Visibility: greater than 7 mile(s):0
Temperature: 28 F (-2 C)
Windchill: 23 F (-5 C):1
Dew Point: 23 F (-5 C)
Relative Humidity: 79%
Pressure (altimeter): 30.30 in. Hg (1026 hPa)
ob: EDDG 212050Z 04004KT 350V090 CAVOK M02/M05 Q1026 NOSIG
cycle: 21

Hamburg

EDDH

METAR
EDDH 212050Z 05002KT CAVOK M03/M03 Q1028 NOSIG
EDDHMETAR lang
Hamburg-Fuhlsbuettel, Germany (EDDH) 53-38N 010-00E 15M
Feb 21, 2018 - 03:50 PM EST / 2018.02.21 2050 UTC
Wind: from the NE (050 degrees) at 2 MPH (2 KT):0
Visibility: greater than 7 mile(s):0
Temperature: 26 F (-3 C)
Dew Point: 26 F (-3 C)
Relative Humidity: 100%
Pressure (altimeter): 30.36 in. Hg (1028 hPa)
ob: EDDH 212050Z 05002KT CAVOK M03/M03 Q1028 NOSIG
cycle: 21

Köln - Bonn

EDDK

METAR
EDDK 212050Z 05004KT CAVOK M00/M05 Q1023 NOSIG
EDDKMETAR lang
Koeln / Bonn, Germany (EDDK) 50-52N 007-10E 100M
Feb 21, 2018 - 03:50 PM EST / 2018.02.21 2050 UTC
Wind: from the NE (050 degrees) at 5 MPH (4 KT):0
Visibility: greater than 7 mile(s):0
Temperature: 32 F (0 C)
Windchill: 26 F (-3 C):1
Dew Point: 23 F (-5 C)
Relative Humidity: 69%
Pressure (altimeter): 30.21 in. Hg (1023 hPa)
ob: EDDK 212050Z 05004KT CAVOK M00/M05 Q1023 NOSIG
cycle: 21

Düsseldorf

EDDL

METAR
EDDL 212050Z 04007KT CAVOK 01/M05 Q1024 NOSIG
EDDLMETAR lang
Duesseldorf, Germany (EDDL) 51-18N 006-46E 41M
Feb 21, 2018 - 03:50 PM EST / 2018.02.21 2050 UTC
Wind: from the NE (040 degrees) at 8 MPH (7 KT):0
Visibility: greater than 7 mile(s):0
Temperature: 33 F (1 C)
Windchill: 26 F (-3 C):1
Dew Point: 23 F (-5 C)
Relative Humidity: 64%
Pressure (altimeter): 30.24 in. Hg (1024 hPa)
ob: EDDL 212050Z 04007KT CAVOK 01/M05 Q1024 NOSIG
cycle: 21

München

EDDM

METAR
EDDM 212050Z 05006KT CAVOK M02/M05 Q1017 NOSIG
EDDMMETAR lang
Munchen, Germany (EDDM) 48-21N 011-47E
Feb 21, 2018 - 03:50 PM EST / 2018.02.21 2050 UTC
Wind: from the NE (050 degrees) at 7 MPH (6 KT):0
Visibility: greater than 7 mile(s):0
Temperature: 28 F (-2 C)
Windchill: 21 F (-6 C):1
Dew Point: 23 F (-5 C)
Relative Humidity: 79%
Pressure (altimeter): 30.03 in. Hg (1017 hPa)
ob: EDDM 212050Z 05006KT CAVOK M02/M05 Q1017 NOSIG
cycle: 21

Nürnberg

EDDN

METAR
EDDN 212050Z 03005KT 360V060 CAVOK M02/M07 Q1020 R28/19//94 NOSIG
EDDNMETAR lang
Nuernberg, Germany (EDDN) 49-30N 011-03E 318M
Feb 21, 2018 - 03:50 PM EST / 2018.02.21 2050 UTC
Wind: from the NNE (030 degrees) at 6 MPH (5 KT) (direction variable):0
Visibility: greater than 7 mile(s):0
Temperature: 28 F (-2 C)
Windchill: 21 F (-6 C):1
Dew Point: 19 F (-7 C)
Relative Humidity: 68%
Pressure (altimeter): 30.12 in. Hg (1020 hPa)
ob: EDDN 212050Z 03005KT 360V060 CAVOK M02/M07 Q1020 R28/19//94 NOSIG
cycle: 21

Leipzig - Halle

EDDP

METAR
EDDP 212050Z 04007KT 9999 FEW046 SCT110 BKN170 M01/M04 Q1024 NOSIG
EDDPMETAR lang
Leipzig-Schkeuditz, Germany (EDDP) 51-25N 012-14E 149M
Feb 21, 2018 - 03:50 PM EST / 2018.02.21 2050 UTC
Wind: from the NE (040 degrees) at 8 MPH (7 KT):0
Visibility: greater than 7 mile(s):0
Sky conditions: mostly cloudy
Temperature: 30 F (-1 C)
Windchill: 23 F (-5 C):1
Dew Point: 24 F (-4 C)
Relative Humidity: 80%
Pressure (altimeter): 30.24 in. Hg (1024 hPa)
ob: EDDP 212050Z 04007KT 9999 FEW046 SCT110 BKN170 M01/M04 Q1024 NOSIG
cycle: 21

Saarbrücken

EDDR

METAR
EDDR 212050Z 05013KT CAVOK M00/M06 Q1018 NOSIG
EDDRMETAR lang
Saarbruecken / Ensheim, Germany (EDDR) 49-13N 007-07E 320M
Feb 21, 2018 - 03:50 PM EST / 2018.02.21 2050 UTC
Wind: from the NE (050 degrees) at 15 MPH (13 KT):0
Visibility: greater than 7 mile(s):0
Temperature: 32 F (0 C)
Windchill: 21 F (-6 C):1
Dew Point: 21 F (-6 C)
Relative Humidity: 63%
Pressure (altimeter): 30.06 in. Hg (1018 hPa)
ob: EDDR 212050Z 05013KT CAVOK M00/M06 Q1018 NOSIG
cycle: 21

Stuttgart

EDDS

METAR
EDDS 212050Z 05007KT CAVOK M02/M06 Q1017 NOSIG
EDDSMETAR lang
Stuttgart-Echterdingen, Germany (EDDS) 48-41N 009-13E 391M
Feb 21, 2018 - 03:50 PM EST / 2018.02.21 2050 UTC
Wind: from the NE (050 degrees) at 8 MPH (7 KT):0
Visibility: greater than 7 mile(s):0
Temperature: 28 F (-2 C)
Windchill: 19 F (-7 C):1
Dew Point: 21 F (-6 C)
Relative Humidity: 74%
Pressure (altimeter): 30.03 in. Hg (1017 hPa)
ob: EDDS 212050Z 05007KT CAVOK M02/M06 Q1017 NOSIG
cycle: 21

Berlin - Tegel

EDDT

METAR
EDDT 212050Z 03006KT 360V070 CAVOK 01/M03 Q1026 NOSIG
EDDTMETAR lang
Berlin-Tegel, Germany (EDDT) 52-34N 013-19E 37M
Feb 21, 2018 - 03:50 PM EST / 2018.02.21 2050 UTC
Wind: from the NNE (030 degrees) at 7 MPH (6 KT) (direction variable):0
Visibility: greater than 7 mile(s):0
Temperature: 33 F (1 C)
Windchill: 26 F (-3 C):1
Dew Point: 26 F (-3 C)
Relative Humidity: 74%
Pressure (altimeter): 30.30 in. Hg (1026 hPa)
ob: EDDT 212050Z 03006KT 360V070 CAVOK 01/M03 Q1026 NOSIG
cycle: 21

Hannover

EDDV

METAR
EDDV 212050Z 05005KT 9999 FEW044 M01/M06 Q1026 NOSIG
EDDVMETAR lang
Hannover, Germany (EDDV) 52-28N 009-41E 59M
Feb 21, 2018 - 03:50 PM EST / 2018.02.21 2050 UTC
Wind: from the NE (050 degrees) at 6 MPH (5 KT):0
Visibility: greater than 7 mile(s):0
Sky conditions: mostly clear
Temperature: 30 F (-1 C)
Windchill: 23 F (-5 C):1
Dew Point: 21 F (-6 C)
Relative Humidity: 68%
Pressure (altimeter): 30.30 in. Hg (1026 hPa)
ob: EDDV 212050Z 05005KT 9999 FEW044 M01/M06 Q1026 NOSIG
cycle: 21

Bremen

EDDW

METAR
EDDW 212050Z 06006KT 9999 FEW043 M00/M05 Q1027 NOSIG
EDDWMETAR lang
Bremen, Germany (EDDW) 53-03N 008-48E 5M
Feb 21, 2018 - 03:50 PM EST / 2018.02.21 2050 UTC
Wind: from the ENE (060 degrees) at 7 MPH (6 KT):0
Visibility: greater than 7 mile(s):0
Sky conditions: mostly clear
Temperature: 32 F (0 C)
Windchill: 24 F (-4 C):1
Dew Point: 23 F (-5 C)
Relative Humidity: 69%
Pressure (altimeter): 30.33 in. Hg (1027 hPa)
ob: EDDW 212050Z 06006KT 9999 FEW043 M00/M05 Q1027 NOSIG
cycle: 21